sensor_id;sensor_type;location;lat;lon;timestamp;temperature;humidity
37222;DHT22;23119;51.842;-2.230;2023-06-26T00:02:06;18.10;99.90
37222;DHT22;23119;51.842;-2.230;2023-06-26T00:04:32;18.10;99.90
37222;DHT22;23119;51.842;-2.230;2023-06-26T00:06:57;18.10;99.90
37222;DHT22;23119;51.842;-2.230;2023-06-26T00:09:23;18.10;99.90
37222;DHT22;23119;51.842;-2.230;2023-06-26T00:11:49;18.00;99.90
37222;DHT22;23119;51.842;-2.230;2023-06-26T00:14:14;18.00;99.90
37222;DHT22;23119;51.842;-2.230;2023-06-26T00:16:46;17.90;99.90
37222;DHT22;23119;51.842;-2.230;2023-06-26T00:19:12;17.90;99.90
37222;DHT22;23119;51.842;-2.230;2023-06-26T00:21:38;17.90;99.90
37222;DHT22;23119;51.842;-2.230;2023-06-26T00:24:04;17.90;99.90
37222;DHT22;23119;51.842;-2.230;2023-06-26T00:26:30;17.80;99.90
37222;DHT22;23119;51.842;-2.230;2023-06-26T00:28:56;17.90;99.90
37222;DHT22;23119;51.842;-2.230;2023-06-26T00:31:21;17.80;99.90
37222;DHT22;23119;51.842;-2.230;2023-06-26T00:33:47;17.80;99.90
37222;DHT22;23119;51.842;-2.230;2023-06-26T00:36:13;17.80;99.90
37222;DHT22;23119;51.842;-2.230;2023-06-26T00:38:39;17.80;99.90
37222;DHT22;23119;51.842;-2.230;2023-06-26T00:41:05;17.80;99.90
37222;DHT22;23119;51.842;-2.230;2023-06-26T00:43:38;17.70;99.90
37222;DHT22;23119;51.842;-2.230;2023-06-26T00:46:06;17.70;99.90
37222;DHT22;23119;51.842;-2.230;2023-06-26T00:48:34;17.70;99.90
37222;DHT22;23119;51.842;-2.230;2023-06-26T00:50:59;17.70;99.90
37222;DHT22;23119;51.842;-2.230;2023-06-26T00:53:25;17.70;99.90
37222;DHT22;23119;51.842;-2.230;2023-06-26T00:55:51;17.60;99.90
37222;DHT22;23119;51.842;-2.230;2023-06-26T00:58:17;17.60;99.90
37222;DHT22;23119;51.842;-2.230;2023-06-26T01:00:43;17.50;99.90
37222;DHT22;23119;51.842;-2.230;2023-06-26T01:03:11;17.50;99.90
37222;DHT22;23119;51.842;-2.230;2023-06-26T01:05:37;17.60;99.90
37222;DHT22;23119;51.842;-2.230;2023-06-26T01:08:04;17.50;99.90
37222;DHT22;23119;51.842;-2.230;2023-06-26T01:10:31;17.50;99.90
37222;DHT22;23119;51.842;-2.230;2023-06-26T01:12:57;17.50;99.90
37222;DHT22;23119;51.842;-2.230;2023-06-26T01:15:23;17.40;99.90
37222;DHT22;23119;51.842;-2.230;2023-06-26T01:17:50;17.40;99.90
37222;DHT22;23119;51.842;-2.230;2023-06-26T01:20:17;17.40;99.90
37222;DHT22;23119;51.842;-2.230;2023-06-26T01:22:49;17.40;99.90
37222;DHT22;23119;51.842;-2.230;2023-06-26T01:25:41;17.40;99.90
37222;DHT22;23119;51.842;-2.230;2023-06-26T01:28:10;17.40;99.90
37222;DHT22;23119;51.842;-2.230;2023-06-26T01:30:40;17.30;99.90
37222;DHT22;23119;51.842;-2.230;2023-06-26T01:33:06;17.30;99.90
37222;DHT22;23119;51.842;-2.230;2023-06-26T01:35:35;17.30;99.90
37222;DHT22;23119;51.842;-2.230;2023-06-26T01:38:20;17.30;99.90
37222;DHT22;23119;51.842;-2.230;2023-06-26T01:40:50;17.30;99.90
37222;DHT22;23119;51.842;-2.230;2023-06-26T01:43:24;17.30;99.90
37222;DHT22;23119;51.842;-2.230;2023-06-26T01:46:08;17.20;99.90
37222;DHT22;23119;51.842;-2.230;2023-06-26T01:48:44;17.20;99.90
37222;DHT22;23119;51.842;-2.230;2023-06-26T01:51:17;17.10;99.90
37222;DHT22;23119;51.842;-2.230;2023-06-26T01:53:46;17.10;99.90
37222;DHT22;23119;51.842;-2.230;2023-06-26T01:56:16;17.00;99.90
37222;DHT22;23119;51.842;-2.230;2023-06-26T01:58:46;17.00;99.90
37222;DHT22;23119;51.842;-2.230;2023-06-26T02:01:13;17.00;99.90
37222;DHT22;23119;51.842;-2.230;2023-06-26T02:03:39;17.00;99.90
37222;DHT22;23119;51.842;-2.230;2023-06-26T02:06:04;17.00;99.90
37222;DHT22;23119;51.842;-2.230;2023-06-26T02:08:30;17.00;99.90
37222;DHT22;23119;51.842;-2.230;2023-06-26T02:10:56;17.00;99.90
37222;DHT22;23119;51.842;-2.230;2023-06-26T02:13:24;17.00;99.90
37222;DHT22;23119;51.842;-2.230;2023-06-26T02:15:50;17.00;99.90
37222;DHT22;23119;51.842;-2.230;2023-06-26T02:18:16;17.00;99.90
37222;DHT22;23119;51.842;-2.230;2023-06-26T02:20:41;16.90;99.90
37222;DHT22;23119;51.842;-2.230;2023-06-26T02:23:09;16.90;99.90
37222;DHT22;23119;51.842;-2.230;2023-06-26T02:25:35;16.90;99.90
37222;DHT22;23119;51.842;-2.230;2023-06-26T02:28:01;16.90;99.90
37222;DHT22;23119;51.842;-2.230;2023-06-26T02:30:26;16.90;99.90
37222;DHT22;23119;51.842;-2.230;2023-06-26T02:33:11;16.90;99.90
37222;DHT22;23119;51.842;-2.230;2023-06-26T02:35:37;16.90;99.90
37222;DHT22;23119;51.842;-2.230;2023-06-26T02:38:02;16.90;99.90
37222;DHT22;23119;51.842;-2.230;2023-06-26T02:40:28;16.80;99.90
37222;DHT22;23119;51.842;-2.230;2023-06-26T02:42:55;16.80;99.90
37222;DHT22;23119;51.842;-2.230;2023-06-26T02:45:21;16.70;99.90
37222;DHT22;23119;51.842;-2.230;2023-06-26T02:47:46;16.70;99.90
37222;DHT22;23119;51.842;-2.230;2023-06-26T02:50:12;16.60;99.90
37222;DHT22;23119;51.842;-2.230;2023-06-26T02:52:38;16.60;99.90
37222;DHT22;23119;51.842;-2.230;2023-06-26T02:55:04;16.50;99.90
37222;DHT22;23119;51.842;-2.230;2023-06-26T02:57:31;16.50;99.90
37222;DHT22;23119;51.842;-2.230;2023-06-26T02:59:56;16.50;99.90
37222;DHT22;23119;51.842;-2.230;2023-06-26T03:02:22;16.50;99.90
37222;DHT22;23119;51.842;-2.230;2023-06-26T03:04:48;16.40;99.90
37222;DHT22;23119;51.842;-2.230;2023-06-26T03:07:15;16.40;99.90
37222;DHT22;23119;51.842;-2.230;2023-06-26T03:09:41;16.40;99.90
37222;DHT22;23119;51.842;-2.230;2023-06-26T03:12:07;16.30;99.90
37222;DHT22;23119;51.842;-2.230;2023-06-26T03:14:33;16.30;99.90
37222;DHT22;23119;51.842;-2.230;2023-06-26T03:16:59;16.40;99.90
37222;DHT22;23119;51.842;-2.230;2023-06-26T03:19:29;16.30;99.90
37222;DHT22;23119;51.842;-2.230;2023-06-26T03:21:54;16.30;99.90
37222;DHT22;23119;51.842;-2.230;2023-06-26T03:24:20;16.30;99.90
37222;DHT22;23119;51.842;-2.230;2023-06-26T03:26:46;16.30;99.90
37222;DHT22;23119;51.842;-2.230;2023-06-26T03:29:12;16.30;99.90
37222;DHT22;23119;51.842;-2.230;2023-06-26T03:31:40;16.30;99.90
37222;DHT22;23119;51.842;-2.230;2023-06-26T03:34:05;16.30;99.90
37222;DHT22;23119;51.842;-2.230;2023-06-26T03:36:31;16.30;99.90
37222;DHT22;23119;51.842;-2.230;2023-06-26T03:38:57;16.30;99.90
37222;DHT22;23119;51.842;-2.230;2023-06-26T03:41:23;16.30;99.90
37222;DHT22;23119;51.842;-2.230;2023-06-26T03:43:49;16.30;99.90
37222;DHT22;23119;51.842;-2.230;2023-06-26T03:46:18;16.20;99.90
37222;DHT22;23119;51.842;-2.230;2023-06-26T03:48:43;16.30;99.90
37222;DHT22;23119;51.842;-2.230;2023-06-26T03:51:09;16.30;99.90
37222;DHT22;23119;51.842;-2.230;2023-06-26T03:53:35;16.30;99.90
37222;DHT22;23119;51.842;-2.230;2023-06-26T03:56:01;16.30;99.90
37222;DHT22;23119;51.842;-2.230;2023-06-26T03:58:28;16.30;99.90
37222;DHT22;23119;51.842;-2.230;2023-06-26T04:00:57;16.30;99.90
37222;DHT22;23119;51.842;-2.230;2023-06-26T04:03:23;16.30;99.90
37222;DHT22;23119;51.842;-2.230;2023-06-26T04:05:49;16.30;99.90
37222;DHT22;23119;51.842;-2.230;2023-06-26T04:08:15;16.40;99.90
37222;DHT22;23119;51.842;-2.230;2023-06-26T04:10:41;16.40;99.90
37222;DHT22;23119;51.842;-2.230;2023-06-26T04:13:06;16.50;99.90
37222;DHT22;23119;51.842;-2.230;2023-06-26T04:15:32;16.50;99.90
37222;DHT22;23119;51.842;-2.230;2023-06-26T04:17:58;16.60;99.90
37222;DHT22;23119;51.842;-2.230;2023-06-26T04:20:23;16.60;99.90
37222;DHT22;23119;51.842;-2.230;2023-06-26T04:22:49;16.80;99.90
37222;DHT22;23119;51.842;-2.230;2023-06-26T04:25:15;17.00;99.90
37222;DHT22;23119;51.842;-2.230;2023-06-26T04:27:41;17.20;99.90
37222;DHT22;23119;51.842;-2.230;2023-06-26T04:30:07;17.50;99.90
37222;DHT22;23119;51.842;-2.230;2023-06-26T04:32:33;18.10;99.90
37222;DHT22;23119;51.842;-2.230;2023-06-26T04:34:59;18.60;99.90
37222;DHT22;23119;51.842;-2.230;2023-06-26T04:37:26;18.90;99.90
37222;DHT22;23119;51.842;-2.230;2023-06-26T04:39:51;19.00;99.90
37222;DHT22;23119;51.842;-2.230;2023-06-26T04:42:17;19.60;99.90
37222;DHT22;23119;51.842;-2.230;2023-06-26T04:44:44;20.40;99.90
37222;DHT22;23119;51.842;-2.230;2023-06-26T04:47:10;21.30;99.90
37222;DHT22;23119;51.842;-2.230;2023-06-26T04:49:36;22.20;99.90
37222;DHT22;23119;51.842;-2.230;2023-06-26T04:52:02;23.00;99.10
37222;DHT22;23119;51.842;-2.230;2023-06-26T04:54:28;23.80;96.90
37222;DHT22;23119;51.842;-2.230;2023-06-26T04:56:54;24.50;95.40
37222;DHT22;23119;51.842;-2.230;2023-06-26T04:59:19;25.20;94.50
37222;DHT22;23119;51.842;-2.230;2023-06-26T05:01:45;25.80;93.30
37222;DHT22;23119;51.842;-2.230;2023-06-26T05:04:14;26.50;91.60
37222;DHT22;23119;51.842;-2.230;2023-06-26T05:06:40;27.20;91.10
37222;DHT22;23119;51.842;-2.230;2023-06-26T05:09:07;27.90;90.30
37222;DHT22;23119;51.842;-2.230;2023-06-26T05:11:36;28.50;89.00
37222;DHT22;23119;51.842;-2.230;2023-06-26T05:14:02;29.20;87.50
37222;DHT22;23119;51.842;-2.230;2023-06-26T05:16:28;29.80;85.90
37222;DHT22;23119;51.842;-2.230;2023-06-26T05:18:53;30.50;84.40
37222;DHT22;23119;51.842;-2.230;2023-06-26T05:21:20;31.00;83.10
37222;DHT22;23119;51.842;-2.230;2023-06-26T05:23:46;31.40;81.30
37222;DHT22;23119;51.842;-2.230;2023-06-26T05:26:13;31.90;79.70
37222;DHT22;23119;51.842;-2.230;2023-06-26T05:28:39;32.60;78.80
37222;DHT22;23119;51.842;-2.230;2023-06-26T05:31:05;33.20;77.60
37222;DHT22;23119;51.842;-2.230;2023-06-26T05:33:31;33.80;76.50
37222;DHT22;23119;51.842;-2.230;2023-06-26T05:36:00;34.30;75.30
37222;DHT22;23119;51.842;-2.230;2023-06-26T05:38:31;34.80;73.60
37222;DHT22;23119;51.842;-2.230;2023-06-26T05:40:57;35.10;72.70
37222;DHT22;23119;51.842;-2.230;2023-06-26T05:43:23;35.50;71.70
37222;DHT22;23119;51.842;-2.230;2023-06-26T05:45:57;35.70;70.70
37222;DHT22;23119;51.842;-2.230;2023-06-26T05:48:28;36.10;70.00
37222;DHT22;23119;51.842;-2.230;2023-06-26T05:50:54;36.60;69.80
37222;DHT22;23119;51.842;-2.230;2023-06-26T05:53:22;36.90;68.00
37222;DHT22;23119;51.842;-2.230;2023-06-26T05:55:50;37.40;67.40
37222;DHT22;23119;51.842;-2.230;2023-06-26T05:58:17;37.90;65.70
37222;DHT22;23119;51.842;-2.230;2023-06-26T06:00:43;37.90;65.50
37222;DHT22;23119;51.842;-2.230;2023-06-26T06:03:10;38.50;65.10
37222;DHT22;23119;51.842;-2.230;2023-06-26T06:05:39;38.80;64.20
37222;DHT22;23119;51.842;-2.230;2023-06-26T06:08:04;38.90;63.00
37222;DHT22;23119;51.842;-2.230;2023-06-26T06:10:30;39.30;62.80
37222;DHT22;23119;51.842;-2.230;2023-06-26T06:12:56;39.70;62.30
37222;DHT22;23119;51.842;-2.230;2023-06-26T06:15:22;40.10;62.20
37222;DHT22;23119;51.842;-2.230;2023-06-26T06:17:48;40.30;61.30
37222;DHT22;23119;51.842;-2.230;2023-06-26T06:20:16;40.70;61.00
37222;DHT22;23119;51.842;-2.230;2023-06-26T06:22:45;41.20;60.40
37222;DHT22;23119;51.842;-2.230;2023-06-26T06:25:14;41.30;59.70
37222;DHT22;23119;51.842;-2.230;2023-06-26T06:27:41;41.50;59.00
37222;DHT22;23119;51.842;-2.230;2023-06-26T06:30:07;41.80;59.00
37222;DHT22;23119;51.842;-2.230;2023-06-26T06:32:34;42.20;58.60
37222;DHT22;23119;51.842;-2.230;2023-06-26T06:35:00;42.40;58.10
37222;DHT22;23119;51.842;-2.230;2023-06-26T06:37:29;42.60;57.80
37222;DHT22;23119;51.842;-2.230;2023-06-26T06:40:00;42.80;57.70
37222;DHT22;23119;51.842;-2.230;2023-06-26T06:42:26;42.80;56.60
37222;DHT22;23119;51.842;-2.230;2023-06-26T06:44:52;43.10;56.70
37222;DHT22;23119;51.842;-2.230;2023-06-26T06:47:19;43.20;56.50
37222;DHT22;23119;51.842;-2.230;2023-06-26T06:49:48;43.40;55.90
37222;DHT22;23119;51.842;-2.230;2023-06-26T06:52:14;43.30;55.10
37222;DHT22;23119;51.842;-2.230;2023-06-26T06:57:19;43.70;54.50
37222;DHT22;23119;51.842;-2.230;2023-06-26T06:59:46;43.80;55.20
37222;DHT22;23119;51.842;-2.230;2023-06-26T07:02:13;44.10;54.80
37222;DHT22;23119;51.842;-2.230;2023-06-26T07:04:39;44.30;54.30
37222;DHT22;23119;51.842;-2.230;2023-06-26T07:07:05;44.60;53.70
37222;DHT22;23119;51.842;-2.230;2023-06-26T07:09:30;44.70;52.90
37222;DHT22;23119;51.842;-2.230;2023-06-26T07:11:57;44.70;52.20
37222;DHT22;23119;51.842;-2.230;2023-06-26T07:14:23;44.80;51.90
37222;DHT22;23119;51.842;-2.230;2023-06-26T07:16:49;44.80;51.60
37222;DHT22;23119;51.842;-2.230;2023-06-26T07:19:15;44.90;51.50
37222;DHT22;23119;51.842;-2.230;2023-06-26T07:21:40;45.00;51.30
37222;DHT22;23119;51.842;-2.230;2023-06-26T07:24:08;45.00;51.20
37222;DHT22;23119;51.842;-2.230;2023-06-26T07:26:37;45.10;51.10
37222;DHT22;23119;51.842;-2.230;2023-06-26T07:29:05;45.00;50.80
37222;DHT22;23119;51.842;-2.230;2023-06-26T07:31:34;44.70;50.70
37222;DHT22;23119;51.842;-2.230;2023-06-26T07:34:02;44.50;50.90
37222;DHT22;23119;51.842;-2.230;2023-06-26T07:36:28;44.50;50.80
37222;DHT22;23119;51.842;-2.230;2023-06-26T07:38:54;44.30;50.90
37222;DHT22;23119;51.842;-2.230;2023-06-26T07:41:19;44.00;50.90
37222;DHT22;23119;51.842;-2.230;2023-06-26T07:43:47;43.50;51.10
37222;DHT22;23119;51.842;-2.230;2023-06-26T07:46:13;42.60;51.10
37222;DHT22;23119;51.842;-2.230;2023-06-26T07:48:39;41.80;52.50
37222;DHT22;23119;51.842;-2.230;2023-06-26T07:51:07;41.30;52.20
37222;DHT22;23119;51.842;-2.230;2023-06-26T07:53:33;41.00;52.30
37222;DHT22;23119;51.842;-2.230;2023-06-26T07:55:59;40.70;52.50
37222;DHT22;23119;51.842;-2.230;2023-06-26T07:58:24;39.60;53.40
37222;DHT22;23119;51.842;-2.230;2023-06-26T08:00:51;38.10;54.30
37222;DHT22;23119;51.842;-2.230;2023-06-26T08:03:16;37.60;54.70
37222;DHT22;23119;51.842;-2.230;2023-06-26T08:05:42;37.10;55.00
37222;DHT22;23119;51.842;-2.230;2023-06-26T08:08:08;36.10;55.50
37222;DHT22;23119;51.842;-2.230;2023-06-26T08:10:33;35.60;56.10
37222;DHT22;23119;51.842;-2.230;2023-06-26T08:13:00;35.10;56.50
37222;DHT22;23119;51.842;-2.230;2023-06-26T08:15:25;34.50;56.90
37222;DHT22;23119;51.842;-2.230;2023-06-26T08:17:51;33.80;57.50
37222;DHT22;23119;51.842;-2.230;2023-06-26T08:20:17;33.40;58.30
37222;DHT22;23119;51.842;-2.230;2023-06-26T08:22:44;33.30;58.70
37222;DHT22;23119;51.842;-2.230;2023-06-26T08:25:14;33.50;58.90
37222;DHT22;23119;51.842;-2.230;2023-06-26T08:27:42;33.60;58.60
37222;DHT22;23119;51.842;-2.230;2023-06-26T08:30:11;33.40;58.60
37222;DHT22;23119;51.842;-2.230;2023-06-26T08:32:43;33.20;58.80
37222;DHT22;23119;51.842;-2.230;2023-06-26T08:35:09;33.00;59.30
37222;DHT22;23119;51.842;-2.230;2023-06-26T08:37:35;32.60;59.60
37222;DHT22;23119;51.842;-2.230;2023-06-26T08:40:03;32.30;60.10
37222;DHT22;23119;51.842;-2.230;2023-06-26T08:42:32;32.10;60.50
37222;DHT22;23119;51.842;-2.230;2023-06-26T08:44:57;31.90;60.80
37222;DHT22;23119;51.842;-2.230;2023-06-26T08:47:23;31.60;61.20
37222;DHT22;23119;51.842;-2.230;2023-06-26T08:50:19;31.20;61.20
37222;DHT22;23119;51.842;-2.230;2023-06-26T08:53:00;30.80;61.70
37222;DHT22;23119;51.842;-2.230;2023-06-26T08:55:27;30.50;61.90
37222;DHT22;23119;51.842;-2.230;2023-06-26T08:57:54;30.30;62.10
37222;DHT22;23119;51.842;-2.230;2023-06-26T09:00:22;30.10;62.20
37222;DHT22;23119;51.842;-2.230;2023-06-26T09:02:48;29.90;62.30
37222;DHT22;23119;51.842;-2.230;2023-06-26T09:05:15;29.80;62.60
37222;DHT22;23119;51.842;-2.230;2023-06-26T09:07:42;29.50;62.90
37222;DHT22;23119;51.842;-2.230;2023-06-26T09:10:08;29.60;63.30
37222;DHT22;23119;51.842;-2.230;2023-06-26T09:12:35;29.60;63.50
37222;DHT22;23119;51.842;-2.230;2023-06-26T09:15:01;29.60;63.50
37222;DHT22;23119;51.842;-2.230;2023-06-26T09:17:36;29.60;63.50
37222;DHT22;23119;51.842;-2.230;2023-06-26T09:20:07;29.60;63.30
37222;DHT22;23119;51.842;-2.230;2023-06-26T09:22:51;29.70;63.00
37222;DHT22;23119;51.842;-2.230;2023-06-26T09:25:17;29.80;62.70
37222;DHT22;23119;51.842;-2.230;2023-06-26T09:27:43;29.80;63.10
37222;DHT22;23119;51.842;-2.230;2023-06-26T09:30:12;29.90;62.50
37222;DHT22;23119;51.842;-2.230;2023-06-26T09:32:44;30.10;62.50
37222;DHT22;23119;51.842;-2.230;2023-06-26T09:35:10;30.20;62.50
37222;DHT22;23119;51.842;-2.230;2023-06-26T09:37:40;30.30;62.50
37222;DHT22;23119;51.842;-2.230;2023-06-26T09:40:07;30.40;62.60
37222;DHT22;23119;51.842;-2.230;2023-06-26T09:42:33;30.60;62.70
37222;DHT22;23119;51.842;-2.230;2023-06-26T09:44:59;30.90;62.50
37222;DHT22;23119;51.842;-2.230;2023-06-26T09:47:25;31.10;62.00
37222;DHT22;23119;51.842;-2.230;2023-06-26T09:49:51;31.20;61.50
37222;DHT22;23119;51.842;-2.230;2023-06-26T09:52:20;31.40;61.50
37222;DHT22;23119;51.842;-2.230;2023-06-26T09:54:47;31.20;61.00
37222;DHT22;23119;51.842;-2.230;2023-06-26T09:57:15;31.00;60.90
37222;DHT22;23119;51.842;-2.230;2023-06-26T09:59:44;31.10;61.50
37222;DHT22;23119;51.842;-2.230;2023-06-26T10:02:13;30.90;61.30
37222;DHT22;23119;51.842;-2.230;2023-06-26T10:04:41;30.80;61.10
37222;DHT22;23119;51.842;-2.230;2023-06-26T10:07:11;30.50;61.30
37222;DHT22;23119;51.842;-2.230;2023-06-26T10:09:42;30.40;62.00
37222;DHT22;23119;51.842;-2.230;2023-06-26T10:12:29;30.40;62.50
37222;DHT22;23119;51.842;-2.230;2023-06-26T10:14:58;30.50;62.60
37222;DHT22;23119;51.842;-2.230;2023-06-26T10:17:34;30.60;62.70
37222;DHT22;23119;51.842;-2.230;2023-06-26T10:20:02;30.60;61.90
37222;DHT22;23119;51.842;-2.230;2023-06-26T10:22:36;30.50;62.30
37222;DHT22;23119;51.842;-2.230;2023-06-26T10:25:06;30.50;62.50
37222;DHT22;23119;51.842;-2.230;2023-06-26T10:27:36;30.40;61.90
37222;DHT22;23119;51.842;-2.230;2023-06-26T10:30:09;30.40;62.10
37222;DHT22;23119;51.842;-2.230;2023-06-26T10:32:35;30.20;61.80
37222;DHT22;23119;51.842;-2.230;2023-06-26T10:35:05;30.20;61.90
37222;DHT22;23119;51.842;-2.230;2023-06-26T10:40:10;30.30;62.10
37222;DHT22;23119;51.842;-2.230;2023-06-26T10:47:40;30.20;62.20
37222;DHT22;23119;51.842;-2.230;2023-06-26T10:50:25;30.20;61.90
37222;DHT22;23119;51.842;-2.230;2023-06-26T10:53:07;30.40;61.70
37222;DHT22;23119;51.842;-2.230;2023-06-26T10:55:33;30.50;61.10
37222;DHT22;23119;51.842;-2.230;2023-06-26T10:58:00;30.30;60.90
37222;DHT22;23119;51.842;-2.230;2023-06-26T11:00:27;30.10;60.80
37222;DHT22;23119;51.842;-2.230;2023-06-26T11:02:53;29.80;61.00
37222;DHT22;23119;51.842;-2.230;2023-06-26T11:05:36;29.80;61.30
37222;DHT22;23119;51.842;-2.230;2023-06-26T11:08:09;29.70;61.50
37222;DHT22;23119;51.842;-2.230;2023-06-26T11:10:53;29.60;61.90
37222;DHT22;23119;51.842;-2.230;2023-06-26T11:13:23;29.50;62.10
37222;DHT22;23119;51.842;-2.230;2023-06-26T11:15:50;29.40;62.00
37222;DHT22;23119;51.842;-2.230;2023-06-26T11:18:22;29.30;62.20
37222;DHT22;23119;51.842;-2.230;2023-06-26T11:20:49;29.10;62.40
37222;DHT22;23119;51.842;-2.230;2023-06-26T11:23:18;29.00;62.20
37222;DHT22;23119;51.842;-2.230;2023-06-26T11:25:50;28.80;62.80
37222;DHT22;23119;51.842;-2.230;2023-06-26T11:28:15;28.60;63.00
37222;DHT22;23119;51.842;-2.230;2023-06-26T11:30:44;28.50;63.40
37222;DHT22;23119;51.842;-2.230;2023-06-26T11:33:12;28.50;64.40
37222;DHT22;23119;51.842;-2.230;2023-06-26T11:35:37;28.60;64.80
37222;DHT22;23119;51.842;-2.230;2023-06-26T11:38:04;28.80;64.10
37222;DHT22;23119;51.842;-2.230;2023-06-26T11:40:36;28.90;63.60
37222;DHT22;23119;51.842;-2.230;2023-06-26T11:43:04;29.00;63.70
37222;DHT22;23119;51.842;-2.230;2023-06-26T11:45:31;29.10;63.90
37222;DHT22;23119;51.842;-2.230;2023-06-26T11:48:00;29.10;63.70
37222;DHT22;23119;51.842;-2.230;2023-06-26T11:50:26;29.30;63.60
37222;DHT22;23119;51.842;-2.230;2023-06-26T11:52:56;29.40;63.00
37222;DHT22;23119;51.842;-2.230;2023-06-26T11:55:26;29.50;62.90
37222;DHT22;23119;51.842;-2.230;2023-06-26T11:57:58;29.50;62.90
37222;DHT22;23119;51.842;-2.230;2023-06-26T12:00:34;29.50;63.60
37222;DHT22;23119;51.842;-2.230;2023-06-26T12:03:01;29.40;62.80
37222;DHT22;23119;51.842;-2.230;2023-06-26T12:05:28;29.30;63.00
37222;DHT22;23119;51.842;-2.230;2023-06-26T12:07:57;29.20;63.10
37222;DHT22;23119;51.842;-2.230;2023-06-26T12:10:25;29.10;63.10
37222;DHT22;23119;51.842;-2.230;2023-06-26T12:12:58;29.20;63.20
37222;DHT22;23119;51.842;-2.230;2023-06-26T12:15:28;29.40;63.20
37222;DHT22;23119;51.842;-2.230;2023-06-26T12:17:57;29.40;63.10
37222;DHT22;23119;51.842;-2.230;2023-06-26T12:20:23;29.30;62.80
37222;DHT22;23119;51.842;-2.230;2023-06-26T12:22:53;29.40;62.80
37222;DHT22;23119;51.842;-2.230;2023-06-26T12:25:23;29.30;62.60
37222;DHT22;23119;51.842;-2.230;2023-06-26T12:27:49;29.20;62.50
37222;DHT22;23119;51.842;-2.230;2023-06-26T12:30:17;29.10;62.70
37222;DHT22;23119;51.842;-2.230;2023-06-26T12:32:59;28.90;62.80
37222;DHT22;23119;51.842;-2.230;2023-06-26T12:35:25;28.80;62.80
37222;DHT22;23119;51.842;-2.230;2023-06-26T12:37:50;28.70;63.00
37222;DHT22;23119;51.842;-2.230;2023-06-26T12:40:22;28.70;63.40
37222;DHT22;23119;51.842;-2.230;2023-06-26T12:42:50;28.70;63.50
37222;DHT22;23119;51.842;-2.230;2023-06-26T12:45:15;28.70;63.60
37222;DHT22;23119;51.842;-2.230;2023-06-26T12:47:41;28.80;63.80
37222;DHT22;23119;51.842;-2.230;2023-06-26T12:50:08;28.70;63.70
37222;DHT22;23119;51.842;-2.230;2023-06-26T12:52:34;28.70;64.50
37222;DHT22;23119;51.842;-2.230;2023-06-26T12:54:59;28.60;63.80
37222;DHT22;23119;51.842;-2.230;2023-06-26T12:57:27;28.60;63.80
37222;DHT22;23119;51.842;-2.230;2023-06-26T12:59:53;28.50;64.10
37222;DHT22;23119;51.842;-2.230;2023-06-26T13:02:19;28.60;64.30
37222;DHT22;23119;51.842;-2.230;2023-06-26T13:04:45;28.60;64.30
37222;DHT22;23119;51.842;-2.230;2023-06-26T13:07:11;28.70;64.60
37222;DHT22;23119;51.842;-2.230;2023-06-26T13:09:39;28.80;64.60
37222;DHT22;23119;51.842;-2.230;2023-06-26T13:12:07;28.90;64.50
37222;DHT22;23119;51.842;-2.230;2023-06-26T13:14:33;28.80;64.40
37222;DHT22;23119;51.842;-2.230;2023-06-26T13:17:01;28.80;64.20
37222;DHT22;23119;51.842;-2.230;2023-06-26T13:19:34;28.70;64.10
37222;DHT22;23119;51.842;-2.230;2023-06-26T13:22:00;28.50;64.50
37222;DHT22;23119;51.842;-2.230;2023-06-26T13:24:25;28.30;64.70
37222;DHT22;23119;51.842;-2.230;2023-06-26T13:26:51;28.10;65.10
37222;DHT22;23119;51.842;-2.230;2023-06-26T13:29:19;27.90;65.30
37222;DHT22;23119;51.842;-2.230;2023-06-26T13:31:51;27.70;65.50
37222;DHT22;23119;51.842;-2.230;2023-06-26T13:34:21;27.40;65.80
37222;DHT22;23119;51.842;-2.230;2023-06-26T13:36:49;27.20;67.10
37222;DHT22;23119;51.842;-2.230;2023-06-26T13:39:15;27.00;66.80
37222;DHT22;23119;51.842;-2.230;2023-06-26T13:41:46;27.00;67.30
37222;DHT22;23119;51.842;-2.230;2023-06-26T13:44:12;27.00;67.40
37222;DHT22;23119;51.842;-2.230;2023-06-26T13:46:37;27.20;67.20
37222;DHT22;23119;51.842;-2.230;2023-06-26T13:49:03;27.40;67.30
37222;DHT22;23119;51.842;-2.230;2023-06-26T13:51:28;27.70;67.00
37222;DHT22;23119;51.842;-2.230;2023-06-26T13:53:54;28.00;66.80
37222;DHT22;23119;51.842;-2.230;2023-06-26T13:56:20;28.20;66.50
37222;DHT22;23119;51.842;-2.230;2023-06-26T13:58:48;28.30;66.20
37222;DHT22;23119;51.842;-2.230;2023-06-26T14:01:14;28.40;66.00
37222;DHT22;23119;51.842;-2.230;2023-06-26T14:03:42;28.60;65.80
37222;DHT22;23119;51.842;-2.230;2023-06-26T14:06:08;28.60;65.50
37222;DHT22;23119;51.842;-2.230;2023-06-26T14:08:34;28.80;65.60
37222;DHT22;23119;51.842;-2.230;2023-06-26T14:11:02;28.90;65.60
37222;DHT22;23119;51.842;-2.230;2023-06-26T14:13:28;29.00;65.30
37222;DHT22;23119;51.842;-2.230;2023-06-26T14:15:53;29.10;65.00
37222;DHT22;23119;51.842;-2.230;2023-06-26T14:18:19;29.20;64.90
37222;DHT22;23119;51.842;-2.230;2023-06-26T14:20:46;29.30;64.80
37222;DHT22;23119;51.842;-2.230;2023-06-26T14:23:12;29.20;64.70
37222;DHT22;23119;51.842;-2.230;2023-06-26T14:25:38;29.20;64.70
37222;DHT22;23119;51.842;-2.230;2023-06-26T14:28:03;29.20;64.90
37222;DHT22;23119;51.842;-2.230;2023-06-26T14:30:29;29.20;64.80
37222;DHT22;23119;51.842;-2.230;2023-06-26T14:32:55;29.10;64.70
37222;DHT22;23119;51.842;-2.230;2023-06-26T14:35:21;29.20;64.80
37222;DHT22;23119;51.842;-2.230;2023-06-26T14:37:49;29.10;64.90
37222;DHT22;23119;51.842;-2.230;2023-06-26T14:40:15;29.10;64.70
37222;DHT22;23119;51.842;-2.230;2023-06-26T14:42:43;29.10;64.60
37222;DHT22;23119;51.842;-2.230;2023-06-26T14:45:13;29.00;64.40
37222;DHT22;23119;51.842;-2.230;2023-06-26T14:47:39;29.00;64.20
37222;DHT22;23119;51.842;-2.230;2023-06-26T14:50:05;29.00;64.10
37222;DHT22;23119;51.842;-2.230;2023-06-26T14:52:34;29.10;64.00
37222;DHT22;23119;51.842;-2.230;2023-06-26T14:55:00;29.20;64.00
37222;DHT22;23119;51.842;-2.230;2023-06-26T14:57:26;29.10;64.10
37222;DHT22;23119;51.842;-2.230;2023-06-26T14:59:52;29.10;64.20
37222;DHT22;23119;51.842;-2.230;2023-06-26T15:02:17;28.90;64.30
37222;DHT22;23119;51.842;-2.230;2023-06-26T15:04:43;28.80;64.40
37222;DHT22;23119;51.842;-2.230;2023-06-26T15:07:11;28.70;64.50
37222;DHT22;23119;51.842;-2.230;2023-06-26T15:09:37;28.60;64.90
37222;DHT22;23119;51.842;-2.230;2023-06-26T15:12:05;28.50;65.00
37222;DHT22;23119;51.842;-2.230;2023-06-26T15:14:34;28.30;64.60
37222;DHT22;23119;51.842;-2.230;2023-06-26T15:17:06;28.30;64.80
37222;DHT22;23119;51.842;-2.230;2023-06-26T15:19:34;28.20;64.80
37222;DHT22;23119;51.842;-2.230;2023-06-26T15:22:00;28.20;64.90
37222;DHT22;23119;51.842;-2.230;2023-06-26T15:24:25;28.20;65.00
37222;DHT22;23119;51.842;-2.230;2023-06-26T15:26:51;28.30;65.00
37222;DHT22;23119;51.842;-2.230;2023-06-26T15:29:19;28.30;64.50